createdAt,value
2018-04-10T00:01:26.714Z,10.00
2018-04-10T00:03:55.038Z,7.60
2018-04-10T00:06:22.626Z,9.67
2018-04-10T00:08:50.221Z,11.50
2018-04-10T00:11:17.787Z,9.90
2018-04-10T00:13:45.420Z,9.40
2018-04-10T00:16:12.959Z,17.27
2018-04-10T00:18:40.574Z,9.60
2018-04-10T00:21:08.917Z,8.07
2018-04-10T00:23:37.273Z,12.57
2018-04-10T00:26:05.921Z,10.80
2018-04-10T00:28:34.224Z,14.33
2018-04-10T00:31:02.532Z,6.60
2018-04-10T00:33:31.349Z,8.30
2018-04-10T00:36:00.133Z,8.53
2018-04-10T00:38:27.686Z,7.67
2018-04-10T00:40:55.268Z,9.90
2018-04-10T00:43:22.829Z,9.10
2018-04-10T00:45:51.208Z,6.93
2018-04-10T00:48:18.769Z,8.20
2018-04-10T00:50:46.348Z,8.97
2018-04-10T00:53:25.893Z,7.30
2018-04-10T00:55:54.194Z,8.47
2018-04-10T00:58:22.722Z,7.70
2018-04-10T01:00:51.057Z,9.30
2018-04-10T01:03:19.368Z,8.07
2018-04-10T01:05:46.966Z,7.20
2018-04-10T01:08:15.291Z,5.83
2018-04-10T01:10:42.868Z,11.37
2018-04-10T01:13:10.436Z,8.70
2018-04-10T01:15:38.015Z,7.53
2018-04-10T01:18:05.626Z,10.13
2018-04-10T01:20:33.178Z,7.43
2018-04-10T01:23:01.170Z,12.17
2018-04-10T01:25:30.612Z,8.60
2018-04-10T01:27:58.169Z,10.20
2018-04-10T01:30:25.712Z,6.00
2018-04-10T01:32:53.311Z,6.30
2018-04-10T01:35:20.937Z,7.70
2018-04-10T01:37:48.544Z,9.90
2018-04-10T01:40:16.102Z,6.40
2018-04-10T01:42:44.453Z,9.50
2018-04-10T01:45:12.056Z,5.13
2018-04-10T01:47:39.609Z,8.07
2018-04-10T01:50:07.943Z,7.37
2018-04-10T01:52:35.527Z,8.20
2018-04-10T01:55:03.131Z,8.47
2018-04-10T01:57:31.631Z,12.10
2018-04-10T02:00:00.707Z,8.97
2018-04-10T02:02:28.234Z,9.93
2018-04-10T02:04:56.565Z,11.33
2018-04-10T02:07:24.900Z,10.13
2018-04-10T02:24:26.829Z,8.40
2018-04-10T02:26:54.433Z,8.77
2018-04-10T02:29:21.998Z,10.73
2018-04-10T02:31:50.316Z,18.70
2018-04-10T02:34:18.684Z,13.03
2018-04-10T02:36:46.235Z,10.40
2018-04-10T02:39:13.845Z,12.33
2018-04-10T02:41:41.409Z,8.53
2018-04-10T02:44:08.977Z,10.53
2018-04-10T02:46:36.546Z,8.17
2018-04-10T02:49:04.852Z,8.60
2018-04-10T02:51:33.193Z,9.70
2018-04-10T02:54:01.717Z,13.23
2018-04-10T02:56:30.270Z,7.40
2018-04-10T02:58:59.096Z,21.87
2018-04-10T03:01:26.674Z,10.47
2018-04-10T03:03:54.661Z,12.77
2018-04-10T03:06:23.011Z,13.00
2018-04-10T03:08:50.576Z,12.53
2018-04-10T03:11:19.153Z,10.17
2018-04-10T03:13:47.473Z,14.83
2018-04-10T03:16:15.042Z,15.10
2018-04-10T03:18:42.607Z,12.00
2018-04-10T03:21:10.150Z,11.10
2018-04-10T03:23:38.615Z,8.20
2018-04-10T03:26:06.195Z,9.80
2018-04-10T03:28:33.765Z,11.37
2018-04-10T03:31:01.524Z,23.37
2018-04-10T03:33:30.891Z,13.40
2018-04-10T03:35:59.904Z,13.53
2018-04-10T03:38:27.501Z,14.93
2018-04-10T03:40:55.828Z,10.67
2018-04-10T03:43:24.040Z,12.00
2018-04-10T03:45:52.359Z,17.27
2018-04-10T03:48:19.916Z,15.10
2018-04-10T03:50:47.508Z,14.47
2018-04-10T03:53:15.073Z,13.13
2018-04-10T03:55:42.776Z,16.63
2018-04-10T03:58:10.317Z,11.90
2018-04-10T04:00:37.947Z,12.80
2018-04-10T04:03:06.284Z,12.73
2018-04-10T04:05:33.873Z,12.93
2018-04-10T04:08:01.428Z,22.33
2018-04-10T04:10:29.771Z,11.60
2018-04-10T04:12:57.306Z,12.40
2018-04-10T04:15:24.887Z,14.80
2018-04-10T04:17:52.533Z,12.70
2018-04-10T04:20:31.667Z,17.00
2018-04-10T04:22:59.914Z,16.67
2018-04-10T04:25:27.457Z,10.43
2018-04-10T04:27:55.004Z,12.90
2018-04-10T04:30:22.592Z,12.90
2018-04-10T04:32:50.165Z,14.00
2018-04-10T04:35:18.529Z,13.50
2018-04-10T04:37:46.068Z,18.60
2018-04-10T04:40:13.633Z,16.33
2018-04-10T04:42:42.016Z,18.80
2018-04-10T04:45:09.609Z,21.03
2018-04-10T04:47:37.191Z,18.23
2018-04-10T04:50:04.838Z,18.33
2018-04-10T04:52:32.384Z,16.10
2018-04-10T04:55:00.584Z,18.43
2018-04-10T04:57:28.158Z,22.97
2018-04-10T04:59:56.487Z,16.00
2018-04-10T05:02:24.202Z,17.80
2018-04-10T05:04:51.899Z,18.70
2018-04-10T05:07:19.518Z,18.83
2018-04-10T05:09:47.126Z,19.53
2018-04-10T05:12:14.692Z,20.33
2018-04-10T05:14:42.308Z,19.40
2018-04-10T05:17:11.989Z,24.97
2018-04-10T05:19:39.575Z,24.90
2018-04-10T05:22:07.167Z,21.37
2018-04-10T05:24:34.824Z,21.37
2018-04-10T05:27:02.444Z,23.10
2018-04-10T05:29:30.840Z,23.13
2018-04-10T05:31:59.891Z,22.47
2018-04-10T05:34:27.525Z,41.40
2018-04-10T05:36:55.165Z,26.63
2018-04-10T05:39:22.797Z,26.00
2018-04-10T05:41:50.483Z,32.07
2018-04-10T05:44:18.152Z,27.60
2018-04-10T05:46:45.833Z,28.40
2018-04-10T05:49:13.500Z,24.30
2018-04-10T05:51:41.072Z,27.17
2018-04-10T05:54:08.654Z,23.80
2018-04-10T05:56:36.205Z,30.00
2018-04-10T05:59:03.803Z,21.63
2018-04-10T06:01:31.502Z,30.23
2018-04-10T06:03:59.885Z,30.70
2018-04-10T06:06:27.515Z,20.60
2018-04-10T06:08:55.125Z,23.83
2018-04-10T06:11:22.945Z,24.40
2018-04-10T06:13:52.307Z,30.23
2018-04-10T06:16:19.861Z,27.50
2018-04-10T06:18:47.546Z,22.57
2018-04-10T06:21:15.198Z,28.80
2018-04-10T06:23:42.776Z,23.20
2018-04-10T06:26:10.448Z,28.00
2018-04-10T06:28:38.797Z,22.17
2018-04-10T06:31:06.432Z,23.97
2018-04-10T06:33:34.055Z,21.70
2018-04-10T06:36:01.627Z,34.40
2018-04-10T06:38:30.757Z,31.97
2018-04-10T06:40:59.173Z,35.63
2018-04-10T06:43:26.753Z,28.13
2018-04-10T06:45:54.341Z,29.93
2018-04-10T06:48:22.271Z,30.27
2018-04-10T06:50:49.859Z,34.00
2018-04-10T06:53:17.464Z,24.33
2018-04-10T06:55:46.968Z,28.17
2018-04-10T06:58:15.310Z,32.73
2018-04-10T07:00:43.772Z,29.97
2018-04-10T07:03:11.429Z,25.73
2018-04-10T07:05:39.751Z,23.30
2018-04-10T07:08:07.329Z,34.13
2018-04-10T07:10:36.089Z,27.67
2018-04-10T07:13:04.429Z,26.93
2018-04-10T07:15:32.021Z,34.23
2018-04-10T07:18:00.493Z,34.27
2018-04-10T07:20:28.088Z,34.03
2018-04-10T07:22:55.692Z,38.30
2018-04-10T07:25:23.290Z,32.77
2018-04-10T07:27:50.847Z,29.83
2018-04-10T07:30:18.676Z,46.33
2018-04-10T07:32:46.305Z,33.77
2018-04-10T07:35:13.864Z,37.50
2018-04-10T07:37:41.545Z,34.57
2018-04-10T07:40:09.109Z,34.07
2018-04-10T07:42:37.252Z,33.17
2018-04-10T07:45:04.852Z,36.13
2018-04-10T07:47:32.497Z,39.47
2018-04-10T07:50:00.924Z,38.10
2018-04-10T07:52:29.139Z,42.73
2018-04-10T07:54:57.496Z,34.47
2018-04-10T07:57:25.062Z,30.10
2018-04-10T07:59:52.651Z,42.97
2018-04-10T08:02:20.229Z,38.67
2018-04-10T08:04:47.889Z,41.60
2018-04-10T08:07:15.532Z,41.47
2018-04-10T08:09:43.912Z,40.90
2018-04-10T08:12:11.579Z,45.63
2018-04-10T08:14:39.211Z,55.30
2018-04-10T08:17:06.771Z,40.10
2018-04-10T08:19:35.153Z,35.23
2018-04-10T08:22:04.458Z,38.53
2018-04-10T08:24:32.236Z,36.87
2018-04-10T08:27:00.165Z,38.57
2018-04-10T08:29:27.734Z,43.23
2018-04-10T08:31:55.324Z,39.47
2018-04-10T08:34:23.042Z,37.27
2018-04-10T08:36:50.751Z,37.67
2018-04-10T08:39:18.322Z,36.63
2018-04-10T08:41:46.083Z,46.87
2018-04-10T08:44:14.489Z,36.83
2018-04-10T08:46:42.124Z,39.40
2018-04-10T08:49:10.936Z,35.97
2018-04-10T08:51:38.554Z,40.97
2018-04-10T08:54:06.117Z,44.20
2018-04-10T08:56:33.812Z,34.37
2018-04-10T08:59:02.171Z,43.00
2018-04-10T09:01:31.973Z,38.70
2018-04-10T09:04:01.017Z,47.70
2018-04-10T09:06:30.401Z,35.40
2018-04-10T09:08:59.449Z,41.03
2018-04-10T09:11:27.063Z,45.20
2018-04-10T09:13:54.621Z,43.50
2018-04-10T09:16:22.249Z,33.13
2018-04-10T09:18:49.844Z,39.63
2018-04-10T09:21:17.916Z,46.27
2018-04-10T09:23:46.426Z,38.50
2018-04-10T09:26:14.269Z,32.40
2018-04-10T09:28:41.976Z,31.50
2018-04-10T09:31:10.457Z,33.63
2018-04-10T09:33:38.068Z,34.57
2018-04-10T09:36:05.712Z,35.13
2018-04-10T09:38:33.355Z,33.53
2018-04-10T09:41:01.260Z,38.13
2018-04-10T09:43:29.858Z,38.10
2018-04-10T09:45:57.440Z,32.53
2018-04-10T09:48:25.629Z,38.97
2018-04-10T09:50:53.252Z,31.77
2018-04-10T09:53:21.657Z,37.53
2018-04-10T09:55:50.017Z,38.83
2018-04-10T09:58:17.867Z,33.20
2018-04-10T10:00:46.575Z,39.50
2018-04-10T10:03:15.373Z,33.47
2018-04-10T10:05:42.935Z,37.03
2018-04-10T10:08:10.536Z,34.37
2018-04-10T10:10:38.974Z,38.87
2018-04-10T10:13:06.644Z,43.60
2018-04-10T10:15:34.512Z,38.83
2018-04-10T10:18:02.954Z,27.10
2018-04-10T10:20:31.284Z,30.33
2018-04-10T10:22:58.884Z,28.97
2018-04-10T10:25:27.161Z,30.43
2018-04-10T10:27:55.627Z,36.00
2018-04-10T10:30:23.251Z,31.90
2018-04-10T10:32:51.184Z,37.70
2018-04-10T10:35:18.980Z,29.77
2018-04-10T10:37:46.615Z,37.23
2018-04-10T10:40:14.243Z,33.97
2018-04-10T10:42:42.576Z,36.07
2018-04-10T10:45:10.128Z,34.67
2018-04-10T10:47:39.397Z,29.10
2018-04-10T10:50:07.165Z,34.53
2018-04-10T10:52:35.087Z,33.53
2018-04-10T10:55:02.892Z,32.93
2018-04-10T10:57:30.500Z,36.70
2018-04-10T10:59:58.588Z,35.87
2018-04-10T11:02:26.793Z,28.13
2018-04-10T11:04:54.348Z,30.97
2018-04-10T11:07:22.790Z,30.00
2018-04-10T11:09:50.519Z,31.73
2018-04-10T11:12:19.049Z,38.40
2018-04-10T11:14:46.656Z,39.37
2018-04-10T11:17:14.624Z,31.83
2018-04-10T11:19:43.008Z,45.87
2018-04-10T11:22:10.580Z,46.07
2018-04-10T11:24:38.270Z,36.33
2018-04-10T11:27:06.873Z,32.10
2018-04-10T11:29:34.609Z,34.50
2018-04-10T11:32:03.086Z,36.17
2018-04-10T11:34:30.717Z,41.60
2018-04-10T11:36:58.774Z,37.93
2018-04-10T11:39:27.203Z,38.53
2018-04-10T11:41:55.309Z,37.60
2018-04-10T11:44:23.019Z,38.80
2018-04-10T11:46:52.064Z,35.57
2018-04-10T11:49:19.650Z,31.30
2018-04-10T11:51:47.264Z,34.93
2018-04-10T11:54:15.610Z,38.83
2018-04-10T11:56:43.207Z,47.47
2018-04-10T11:59:11.080Z,40.40
2018-04-10T12:01:39.557Z,34.97
2018-04-10T12:04:07.915Z,36.70
2018-04-10T12:06:35.645Z,41.33
2018-04-10T12:09:04.055Z,43.57
2018-04-10T12:11:31.969Z,42.80
2018-04-10T12:13:59.781Z,37.40
2018-04-10T12:16:27.777Z,41.13
2018-04-10T12:18:56.080Z,36.57
2018-04-10T12:21:23.846Z,36.90
2018-04-10T12:23:51.477Z,44.60
2018-04-10T12:26:19.838Z,46.37
2018-04-10T12:28:48.351Z,38.70
2018-04-10T12:31:15.991Z,42.43
2018-04-10T12:33:43.733Z,40.97
2018-04-10T12:36:11.350Z,35.97
2018-04-10T12:38:39.043Z,37.87
2018-04-10T12:41:06.648Z,39.57
2018-04-10T12:43:34.214Z,39.27
2018-04-10T12:46:01.874Z,37.37
2018-04-10T12:48:29.768Z,37.70
2018-04-10T12:50:58.081Z,38.37
2018-04-10T12:53:26.652Z,39.87
2018-04-10T12:55:54.406Z,40.50
2018-04-10T12:58:22.759Z,40.50
2018-04-10T13:00:51.301Z,34.73
2018-04-10T13:03:19.892Z,47.17
2018-04-10T13:05:48.359Z,40.07
2018-04-10T13:08:16.085Z,37.93
2018-04-10T13:10:43.640Z,32.90
2018-04-10T13:13:11.274Z,42.50
2018-04-10T13:15:40.107Z,39.03
2018-04-10T13:18:07.762Z,34.00
2018-04-10T13:20:35.678Z,40.57
2018-04-10T13:23:03.587Z,36.80
2018-04-10T13:25:31.277Z,48.13
2018-04-10T13:27:58.922Z,30.90
2018-04-10T13:30:27.742Z,30.57
2018-04-10T13:32:56.223Z,31.73
2018-04-10T13:35:23.826Z,30.97
2018-04-10T13:37:52.195Z,35.10
2018-04-10T13:40:19.926Z,38.43
2018-04-10T13:42:47.697Z,29.97
2018-04-10T13:45:15.375Z,38.57
2018-04-10T13:47:43.088Z,35.73
2018-04-10T13:50:10.945Z,31.97
2018-04-10T13:52:39.089Z,30.37
2018-04-10T13:55:06.856Z,30.20
2018-04-10T13:57:34.606Z,30.23
2018-04-10T14:00:06.586Z,28.70
2018-04-10T14:02:34.128Z,28.73
2018-04-10T14:05:01.810Z,29.10
2018-04-10T14:07:29.523Z,29.77
2018-04-10T14:09:57.286Z,27.77
2018-04-10T14:12:25.265Z,24.63
2018-04-10T14:14:53.703Z,19.30
2018-04-10T14:17:21.716Z,26.87
2018-04-10T14:19:50.135Z,21.27
2018-04-10T14:22:17.953Z,26.30
2018-04-10T14:24:46.295Z,19.57
2018-04-10T14:27:14.956Z,20.83
2018-04-10T14:29:42.528Z,22.97
2018-04-10T14:32:10.253Z,17.97
2018-04-10T14:34:38.694Z,20.17
2018-04-10T14:37:06.304Z,19.60
2018-04-10T14:39:33.993Z,19.30
2018-04-10T14:42:01.550Z,18.10
2018-04-10T14:44:29.950Z,14.83
2018-04-10T14:46:57.648Z,9.40
2018-04-10T14:49:26.084Z,13.00
2018-04-10T14:51:54.463Z,11.50
2018-04-10T14:54:22.169Z,25.53
2018-04-10T14:56:49.809Z,12.23
2018-04-10T14:59:17.452Z,11.80
2018-04-10T15:01:45.016Z,15.10
2018-04-10T15:04:12.903Z,15.53
2018-04-10T15:06:40.521Z,11.30
2018-04-10T15:09:08.900Z,20.43
2018-04-10T15:11:37.471Z,12.00
2018-04-10T15:14:05.099Z,13.63
2018-04-10T15:16:34.413Z,10.93
2018-04-10T15:19:02.217Z,10.87
2018-04-10T15:21:29.785Z,21.43
2018-04-10T15:23:58.136Z,13.80
2018-04-10T15:26:27.756Z,7.70
2018-04-10T15:28:56.102Z,7.43
2018-04-10T15:31:24.413Z,8.37
2018-04-10T15:33:52.093Z,11.07
2018-04-10T15:36:19.682Z,8.80
2018-04-10T15:38:47.354Z,5.40
2018-04-10T15:41:14.986Z,6.83
2018-04-10T15:43:43.368Z,12.50
2018-04-10T15:46:10.999Z,7.47
2018-04-10T15:48:38.603Z,14.40
2018-04-10T15:51:06.972Z,11.63
2018-04-10T15:53:34.606Z,6.60
2018-04-10T15:56:03.017Z,9.07
2018-04-10T15:58:30.727Z,5.80
2018-04-10T16:00:58.490Z,11.23
2018-04-10T16:03:27.024Z,11.60
2018-04-10T16:05:56.013Z,13.03
2018-04-10T16:08:23.820Z,8.43
2018-04-10T16:10:51.398Z,13.03
2018-04-10T16:13:21.884Z,8.63
2018-04-10T16:15:49.840Z,7.13
2018-04-10T16:18:17.496Z,6.13
2018-04-10T16:20:45.257Z,10.60
2018-04-10T16:23:13.667Z,6.07
2018-04-10T16:25:42.386Z,7.50
2018-04-10T16:28:10.740Z,15.30
2018-04-10T16:30:38.895Z,7.67
2018-04-10T16:33:06.442Z,20.20
2018-04-10T16:35:34.221Z,8.33
2018-04-10T16:38:02.138Z,9.07
2018-04-10T16:40:29.813Z,14.30
2018-04-10T16:42:57.631Z,8.30
2018-04-10T16:45:26.435Z,15.60
2018-04-10T16:47:54.057Z,6.83
2018-04-10T16:50:21.634Z,9.20
2018-04-10T16:52:49.272Z,7.43
2018-04-10T16:55:17.905Z,7.23
2018-04-10T16:57:46.291Z,8.00
2018-04-10T17:00:13.904Z,9.90
2018-04-10T17:02:41.858Z,9.43
2018-04-10T17:05:09.395Z,11.10
2018-04-10T17:07:37.026Z,6.53
2018-04-10T17:10:04.760Z,10.40
2018-04-10T17:12:32.415Z,10.50
2018-04-10T17:15:00.164Z,10.53
2018-04-10T17:17:27.729Z,6.77
2018-04-10T17:19:56.919Z,6.90
2018-04-10T17:22:24.553Z,6.90
2018-04-10T17:24:52.862Z,6.43
2018-04-10T17:27:20.455Z,10.33
2018-04-10T17:29:48.081Z,5.27
2018-04-10T17:32:16.471Z,7.40
2018-04-10T17:34:44.084Z,7.37
2018-04-10T17:37:11.675Z,7.67
2018-04-10T17:39:39.400Z,7.27
2018-04-10T17:42:06.988Z,8.93
2018-04-10T17:44:34.673Z,8.53
2018-04-10T17:47:03.012Z,7.00
2018-04-10T17:49:30.687Z,10.83
2018-04-10T17:51:58.300Z,11.07
2018-04-10T17:54:27.661Z,7.23
2018-04-10T17:56:56.362Z,6.83
2018-04-10T17:59:25.259Z,9.27
2018-04-10T18:01:53.075Z,6.10
2018-04-10T18:04:20.710Z,6.37
2018-04-10T18:06:49.053Z,9.00
2018-04-10T18:09:16.636Z,11.50
2018-04-10T18:11:44.341Z,5.57
2018-04-10T18:14:12.000Z,7.80
2018-04-10T18:16:39.636Z,6.50
2018-04-10T18:19:07.403Z,6.90
2018-04-10T18:21:35.061Z,11.53
2018-04-10T18:24:02.907Z,11.93
2018-04-10T18:26:30.571Z,11.87
2018-04-10T18:28:58.931Z,6.10
2018-04-10T18:31:27.687Z,10.10
2018-04-10T18:33:56.044Z,10.20
2018-04-10T18:36:23.647Z,8.53
2018-04-10T18:38:51.237Z,19.63
2018-04-10T18:41:18.885Z,9.90
2018-04-10T18:43:46.499Z,11.00
2018-04-10T18:46:14.090Z,13.53
2018-04-10T18:48:41.719Z,17.93
2018-04-10T18:51:09.289Z,7.13
2018-04-10T18:53:36.913Z,13.20
2018-04-10T18:56:05.518Z,10.17
2018-04-10T18:58:33.135Z,7.50
2018-04-10T19:01:00.762Z,7.50
2018-04-10T19:03:28.381Z,13.23
2018-04-10T19:05:56.364Z,8.33
2018-04-10T19:08:25.305Z,10.53
2018-04-10T19:10:52.948Z,18.23
2018-04-10T19:13:20.517Z,17.30
2018-04-10T19:15:48.893Z,14.73
2018-04-10T19:18:17.730Z,21.03
2018-04-10T19:20:45.289Z,17.10
2018-04-10T19:23:12.871Z,17.03
2018-04-10T19:25:40.469Z,16.60
2018-04-10T19:28:08.202Z,16.60
2018-04-10T19:30:35.854Z,19.63
2018-04-10T19:33:03.430Z,13.73
2018-04-10T19:35:31.033Z,13.93
2018-04-10T19:37:58.670Z,24.10
2018-04-10T19:40:27.437Z,19.43
2018-04-10T19:42:56.712Z,16.87
2018-04-10T19:45:25.313Z,17.73
2018-04-10T19:47:53.709Z,15.83
2018-04-10T19:50:21.335Z,16.93
2018-04-10T19:52:48.921Z,18.50
2018-04-10T19:55:16.590Z,14.60
2018-04-10T19:57:46.618Z,12.50
2018-04-10T20:00:14.219Z,15.00
2018-04-10T20:02:41.819Z,11.40
2018-04-10T20:05:09.412Z,12.43
2018-04-10T20:07:36.975Z,8.20
2018-04-10T20:10:05.084Z,12.93
2018-04-10T20:12:33.411Z,10.03
2018-04-10T20:15:01.049Z,8.73
2018-04-10T20:17:28.719Z,9.97
2018-04-10T20:19:57.474Z,5.83
2018-04-10T20:22:25.423Z,9.90
2018-04-10T20:24:52.990Z,7.07
2018-04-10T20:27:21.368Z,9.63
2018-04-10T20:29:50.220Z,9.20
2018-04-10T20:32:18.782Z,8.77
2018-04-10T20:34:47.116Z,9.47
2018-04-10T20:37:14.863Z,10.47
2018-04-10T20:39:42.471Z,10.73
2018-04-10T20:42:10.151Z,11.63
2018-04-10T20:44:38.062Z,10.63
2018-04-10T20:47:05.722Z,12.90
2018-04-10T20:49:33.366Z,15.67
2018-04-10T20:52:01.745Z,12.30
2018-04-10T20:54:30.187Z,12.17
2018-04-10T20:56:57.745Z,14.87
2018-04-10T20:59:26.504Z,14.57
2018-04-10T21:01:55.344Z,18.53
2018-04-10T21:04:22.943Z,14.80
2018-04-10T21:06:50.821Z,16.63
2018-04-10T21:09:18.390Z,19.53
2018-04-10T21:11:46.006Z,16.40
2018-04-10T21:14:13.616Z,16.23
2018-04-10T21:19:34.695Z,17.63
2018-04-10T21:22:02.334Z,20.20
2018-04-10T21:24:30.004Z,21.00
2018-04-10T21:26:57.742Z,26.30
2018-04-10T21:29:25.952Z,19.77
2018-04-10T21:31:54.348Z,20.50
2018-04-10T21:34:21.963Z,15.53
2018-04-10T21:36:50.298Z,17.37
2018-04-10T21:39:17.892Z,20.10
2018-04-10T21:41:45.495Z,22.83
2018-04-10T21:44:13.107Z,21.93
2018-04-10T21:46:40.681Z,16.20
2018-04-10T21:49:09.301Z,22.03
2018-04-10T21:51:36.911Z,17.60
2018-04-10T21:54:05.245Z,19.93
2018-04-10T21:56:33.587Z,19.90
2018-04-10T21:59:01.976Z,25.67
2018-04-10T22:18:42.037Z,20.80
2018-04-10T22:21:10.431Z,19.97
2018-04-10T22:23:38.830Z,17.90
2018-04-10T22:26:06.515Z,22.63
2018-04-10T22:28:34.204Z,21.50
2018-04-10T22:31:01.755Z,20.83
2018-04-10T22:33:29.342Z,19.30
2018-04-10T22:35:56.940Z,22.60
2018-04-10T22:38:25.560Z,22.30
2018-04-10T22:40:53.239Z,19.60
2018-04-10T22:43:21.614Z,22.93
2018-04-10T22:45:49.593Z,25.30
2018-04-10T22:48:33.872Z,21.03
2018-04-10T22:51:02.222Z,19.10
2018-04-10T22:53:29.832Z,25.87
2018-04-10T22:55:57.485Z,19.83
2018-04-10T22:58:25.054Z,23.43
2018-04-10T23:00:53.397Z,26.17
2018-04-10T23:03:21.114Z,23.53
2018-04-10T23:05:49.653Z,20.93
2018-04-10T23:08:18.281Z,21.87
2018-04-10T23:10:47.279Z,24.63
2018-04-10T23:13:15.620Z,27.90
2018-04-10T23:15:43.364Z,31.80
2018-04-10T23:18:11.722Z,26.83
2018-04-10T23:20:39.290Z,27.20
2018-04-10T23:23:07.638Z,24.30
2018-04-10T23:25:35.968Z,27.57
2018-04-10T23:28:03.567Z,26.70
2018-04-10T23:30:31.196Z,32.33
2018-04-10T23:32:58.783Z,26.13
2018-04-10T23:35:26.374Z,27.50
2018-04-10T23:37:53.933Z,27.07
2018-04-10T23:40:22.336Z,31.37
2018-04-10T23:42:50.047Z,30.00
2018-04-10T23:45:18.313Z,34.17
2018-04-10T23:47:48.358Z,29.40
2018-04-10T23:50:16.000Z,29.57
2018-04-10T23:52:43.612Z,32.40
2018-04-10T23:55:11.211Z,31.50
2018-04-10T23:57:38.770Z,32.40
